createdAt,value
2017-10-10T00:02:19.341Z,11.80
2017-10-10T00:05:22.261Z,11.80
2017-10-10T00:08:24.244Z,11.80
2017-10-10T00:11:26.313Z,11.80
2017-10-10T00:14:29.146Z,11.80
2017-10-10T00:17:31.135Z,11.80
2017-10-10T00:20:33.086Z,11.80
2017-10-10T00:23:35.918Z,11.80
2017-10-10T00:26:37.901Z,11.80
2017-10-10T00:29:40.287Z,11.80
2017-10-10T00:32:42.450Z,11.80
2017-10-10T00:35:45.582Z,11.70
2017-10-10T00:38:47.643Z,11.70
2017-10-10T00:41:51.516Z,11.70
2017-10-10T00:44:53.488Z,11.70
2017-10-10T00:47:55.576Z,11.70
2017-10-10T00:50:57.657Z,11.70
2017-10-10T00:54:00.139Z,11.70
2017-10-10T00:57:02.103Z,11.70
2017-10-10T01:00:05.300Z,11.60
2017-10-10T01:03:08.047Z,11.60
2017-10-10T01:06:10.431Z,11.60
2017-10-10T01:09:12.397Z,11.60
2017-10-10T01:12:15.293Z,11.60
2017-10-10T01:15:18.009Z,11.60
2017-10-10T01:18:20.417Z,11.60
2017-10-10T01:21:22.389Z,11.60
2017-10-10T01:24:24.366Z,11.50
2017-10-10T01:27:26.341Z,11.50
2017-10-10T01:30:29.568Z,11.50
2017-10-10T01:33:32.345Z,11.50
2017-10-10T01:36:35.101Z,11.50
2017-10-10T01:39:37.093Z,11.50
2017-10-10T01:42:39.443Z,11.50
2017-10-10T01:45:41.437Z,11.50
2017-10-10T01:48:43.513Z,11.50
2017-10-10T01:51:45.591Z,11.50
2017-10-10T01:54:48.001Z,11.50
2017-10-10T01:57:49.988Z,11.50
2017-10-10T02:00:52.378Z,11.50
2017-10-10T02:03:54.348Z,11.50
2017-10-10T02:06:56.738Z,11.60
2017-10-10T02:09:58.708Z,11.60
2017-10-10T02:13:01.839Z,11.60
2017-10-10T02:16:03.803Z,11.60
2017-10-10T02:19:06.203Z,11.60
2017-10-10T02:22:08.163Z,11.60
2017-10-10T02:25:10.922Z,11.60
2017-10-10T02:28:12.988Z,11.60
2017-10-10T02:31:15.203Z,11.60
2017-10-10T02:34:17.162Z,11.60
2017-10-10T02:37:19.526Z,11.60
2017-10-10T02:40:22.350Z,11.60
2017-10-10T02:43:24.743Z,11.60
2017-10-10T02:46:26.821Z,11.60
2017-10-10T02:49:29.018Z,11.60
2017-10-10T02:52:30.985Z,11.70
2017-10-10T02:55:32.973Z,11.70
2017-10-10T02:58:34.937Z,11.70
2017-10-10T03:01:37.328Z,11.70
2017-10-10T03:04:40.176Z,11.70
2017-10-10T03:07:42.546Z,11.70
2017-10-10T03:10:44.553Z,11.70
2017-10-10T03:13:46.553Z,11.70
2017-10-10T03:16:48.595Z,11.70
2017-10-10T03:19:51.753Z,11.70
2017-10-10T03:22:53.898Z,11.70
2017-10-10T03:25:56.288Z,11.80
2017-10-10T03:28:58.283Z,11.70
2017-10-10T03:32:00.662Z,11.70
2017-10-10T03:35:02.732Z,11.80
2017-10-10T03:38:05.040Z,11.80
2017-10-10T03:41:07.023Z,11.80
2017-10-10T03:44:09.022Z,11.80
2017-10-10T03:47:11.303Z,11.80
2017-10-10T03:50:13.583Z,11.80
2017-10-10T03:53:15.570Z,11.80
2017-10-10T03:56:17.652Z,11.80
2017-10-10T03:59:19.716Z,11.80
2017-10-10T04:02:22.533Z,11.80
2017-10-10T04:05:24.521Z,11.90
2017-10-10T04:08:26.769Z,11.90
2017-10-10T04:11:28.750Z,11.90
2017-10-10T04:14:31.070Z,11.90
2017-10-10T04:17:33.817Z,11.90
2017-10-10T04:20:35.953Z,11.90
2017-10-10T04:23:38.677Z,11.90
2017-10-10T04:26:41.058Z,11.90
2017-10-10T04:29:43.046Z,11.90
2017-10-10T04:32:45.144Z,11.90
2017-10-10T04:35:47.112Z,11.90
2017-10-10T04:38:49.219Z,12.00
2017-10-10T04:41:51.170Z,11.90
2017-10-10T04:44:54.298Z,12.00
2017-10-10T04:47:56.295Z,11.90
2017-10-10T04:50:58.283Z,12.00
2017-10-10T04:54:00.352Z,12.00
2017-10-10T04:57:02.741Z,12.00
2017-10-10T05:00:04.715Z,12.00
2017-10-10T05:03:07.122Z,12.10
2017-10-10T05:06:09.079Z,12.10
2017-10-10T05:09:11.897Z,12.00
2017-10-10T05:12:13.872Z,12.00
2017-10-10T05:15:16.265Z,12.00
2017-10-10T05:18:18.241Z,12.00
2017-10-10T05:21:21.365Z,12.00
2017-10-10T05:24:23.536Z,12.00
2017-10-10T05:27:26.296Z,12.00
2017-10-10T05:30:28.268Z,12.00
2017-10-10T05:33:30.472Z,12.00
2017-10-10T05:36:32.441Z,12.00
2017-10-10T05:39:34.808Z,12.00
2017-10-10T05:42:36.774Z,12.00
2017-10-10T05:45:38.774Z,12.00
2017-10-10T05:48:40.750Z,12.00
2017-10-10T05:51:43.139Z,12.10
2017-10-10T05:54:45.146Z,12.10
2017-10-10T05:57:47.520Z,12.10
2017-10-10T06:00:49.524Z,12.10
2017-10-10T06:03:51.590Z,12.10
2017-10-10T06:06:53.596Z,12.10
2017-10-10T06:09:56.947Z,12.10
2017-10-10T06:12:58.919Z,12.10
2017-10-10T06:16:00.910Z,12.20
2017-10-10T06:19:02.886Z,12.20
2017-10-10T06:22:05.230Z,12.20
2017-10-10T06:25:07.199Z,12.20
2017-10-10T06:28:09.303Z,12.20
2017-10-10T06:31:11.379Z,12.20
2017-10-10T06:34:14.592Z,12.20
2017-10-10T06:37:16.558Z,12.20
2017-10-10T06:40:19.590Z,12.20
2017-10-10T06:43:21.556Z,12.20
2017-10-10T06:46:23.955Z,12.20
2017-10-10T06:49:25.954Z,12.20
2017-10-10T06:52:27.988Z,12.30
2017-10-10T06:55:29.946Z,12.30
2017-10-10T06:58:31.991Z,12.30
2017-10-10T07:01:33.955Z,12.30
2017-10-10T07:04:36.776Z,12.40
2017-10-10T07:07:38.842Z,12.40
2017-10-10T07:10:41.976Z,12.40
2017-10-10T07:13:44.066Z,12.40
2017-10-10T07:16:46.051Z,12.40
2017-10-10T07:19:48.165Z,12.50
2017-10-10T07:22:50.519Z,12.50
2017-10-10T07:25:52.504Z,12.50
2017-10-10T07:28:54.902Z,12.60
2017-10-10T07:31:56.872Z,12.60
2017-10-10T07:34:59.273Z,12.70
2017-10-10T07:38:01.247Z,12.70
2017-10-10T07:41:03.310Z,12.70
2017-10-10T07:44:06.146Z,12.70
2017-10-10T07:47:08.228Z,12.70
2017-10-10T07:50:10.183Z,12.70
2017-10-10T07:53:12.960Z,12.70
2017-10-10T07:56:15.772Z,12.70
2017-10-10T07:59:18.121Z,12.70
2017-10-10T08:02:20.097Z,12.70
2017-10-10T08:05:22.153Z,12.70
2017-10-10T08:08:24.129Z,12.70
2017-10-10T08:11:27.260Z,12.80
2017-10-10T08:14:29.249Z,12.70
2017-10-10T08:17:31.235Z,12.80
2017-10-10T08:20:33.196Z,12.80
2017-10-10T08:23:35.882Z,12.80
2017-10-10T08:26:38.708Z,12.80
2017-10-10T08:29:40.791Z,12.80
2017-10-10T08:32:42.775Z,12.80
2017-10-10T08:35:44.782Z,12.90
2017-10-10T08:38:46.856Z,12.90
2017-10-10T08:41:48.926Z,12.90
2017-10-10T08:44:50.921Z,13.00
2017-10-10T08:47:53.307Z,13.10
2017-10-10T08:50:55.761Z,13.30
2017-10-10T08:53:58.206Z,13.50
2017-10-10T08:57:00.166Z,13.80
2017-10-10T09:00:02.246Z,14.00
2017-10-10T09:03:05.079Z,14.70
2017-10-10T09:06:07.176Z,14.60
2017-10-10T09:09:09.242Z,14.80
2017-10-10T09:12:11.226Z,14.90
2017-10-10T09:15:13.625Z,15.00
2017-10-10T09:18:15.786Z,15.20
2017-10-10T09:21:18.618Z,15.40
2017-10-10T09:24:20.591Z,15.40
2017-10-10T09:27:22.597Z,15.70
2017-10-10T09:30:24.663Z,15.90
2017-10-10T09:33:26.830Z,15.80
2017-10-10T09:36:29.654Z,15.80
2017-10-10T09:39:31.635Z,15.80
2017-10-10T09:42:34.461Z,16.00
2017-10-10T09:45:37.025Z,16.00
2017-10-10T09:48:40.571Z,16.00
2017-10-10T09:51:42.646Z,16.00
2017-10-10T09:54:44.852Z,16.00
2017-10-10T09:57:46.929Z,16.00
2017-10-10T10:00:48.923Z,15.90
2017-10-10T10:03:51.419Z,15.90
2017-10-10T10:06:53.862Z,16.10
2017-10-10T10:09:56.607Z,17.20
2017-10-10T10:12:58.587Z,17.20
2017-10-10T10:16:00.794Z,17.60
2017-10-10T10:19:02.769Z,17.70
2017-10-10T10:22:04.865Z,17.60
2017-10-10T10:25:06.840Z,17.20
2017-10-10T10:28:09.084Z,17.00
2017-10-10T10:31:11.120Z,16.70
2017-10-10T10:34:13.274Z,16.40
2017-10-10T10:37:16.013Z,15.70
2017-10-10T10:40:18.090Z,15.70
2017-10-10T10:43:20.089Z,15.60
2017-10-10T10:46:22.146Z,15.50
2017-10-10T10:49:24.191Z,15.50
2017-10-10T10:52:27.346Z,15.50
2017-10-10T10:55:30.081Z,15.50
2017-10-10T10:58:32.323Z,15.50
2017-10-10T11:01:35.158Z,16.10
2017-10-10T11:04:37.550Z,16.00
2017-10-10T11:07:39.520Z,16.70
2017-10-10T11:10:41.999Z,17.30
2017-10-10T11:13:44.818Z,18.10
2017-10-10T11:16:46.919Z,18.00
2017-10-10T11:19:48.889Z,19.10
2017-10-10T11:22:50.985Z,20.10
2017-10-10T11:25:52.954Z,21.00
2017-10-10T11:28:54.956Z,21.20
2017-10-10T11:31:57.018Z,22.20
2017-10-10T11:34:59.469Z,23.40
2017-10-10T11:38:01.506Z,23.60
2017-10-10T11:41:03.609Z,22.90
2017-10-10T11:44:06.464Z,22.40
2017-10-10T11:47:08.548Z,21.90
2017-10-10T11:50:10.568Z,21.70
2017-10-10T11:53:12.653Z,21.40
2017-10-10T11:56:14.622Z,22.30
2017-10-10T11:59:16.887Z,23.20
2017-10-10T12:02:18.860Z,23.00
2017-10-10T12:05:21.283Z,22.10
2017-10-10T12:08:23.320Z,21.30
2017-10-10T12:11:26.580Z,20.60
2017-10-10T12:14:29.324Z,19.20
2017-10-10T12:17:31.691Z,19.10
2017-10-10T12:20:33.695Z,18.60
2017-10-10T12:23:36.072Z,18.40
2017-10-10T12:26:38.064Z,18.40
2017-10-10T12:29:40.061Z,18.20
2017-10-10T12:32:42.414Z,17.80
2017-10-10T12:35:45.235Z,17.20
2017-10-10T12:38:47.213Z,17.20
2017-10-10T12:41:50.118Z,17.20
2017-10-10T12:44:52.107Z,17.20
2017-10-10T12:47:54.503Z,17.20
2017-10-10T12:50:56.455Z,17.10
2017-10-10T12:53:58.435Z,17.00
2017-10-10T12:57:00.469Z,16.80
2017-10-10T13:00:02.856Z,16.70
2017-10-10T13:03:04.825Z,16.50
2017-10-10T13:06:06.815Z,16.50
2017-10-10T13:09:08.795Z,16.40
2017-10-10T13:12:10.804Z,16.30
2017-10-10T13:15:12.769Z,16.10
2017-10-10T13:18:15.160Z,15.90
2017-10-10T13:21:17.242Z,15.80
2017-10-10T13:24:19.326Z,15.70
2017-10-10T13:27:21.306Z,15.60
2017-10-10T13:30:23.906Z,15.60
2017-10-10T13:33:25.867Z,15.50
2017-10-10T13:36:29.036Z,15.50
2017-10-10T13:39:31.020Z,15.50
2017-10-10T13:42:33.397Z,15.50
2017-10-10T13:45:35.468Z,15.50
2017-10-10T13:48:37.473Z,15.40
2017-10-10T13:51:39.526Z,15.20
2017-10-10T13:54:41.562Z,15.10
2017-10-10T13:57:43.555Z,15.00
2017-10-10T14:00:46.711Z,14.90
2017-10-10T14:03:48.679Z,14.90
2017-10-10T14:06:50.782Z,14.90
2017-10-10T14:09:52.900Z,14.80
2017-10-10T14:12:55.258Z,14.80
2017-10-10T14:15:57.231Z,14.80
2017-10-10T14:18:59.611Z,14.80
2017-10-10T14:22:02.425Z,14.70
2017-10-10T14:25:04.539Z,14.60
2017-10-10T14:28:06.620Z,14.60
2017-10-10T14:31:09.621Z,14.50
2017-10-10T14:34:11.593Z,14.50
2017-10-10T14:37:13.988Z,14.40
2017-10-10T14:40:16.002Z,14.40
2017-10-10T14:43:18.089Z,14.30
2017-10-10T14:46:20.121Z,14.40
2017-10-10T14:49:23.022Z,14.40
2017-10-10T14:52:25.764Z,14.40
2017-10-10T14:55:27.834Z,14.40
2017-10-10T14:58:29.796Z,14.40
2017-10-10T15:01:32.928Z,14.30
2017-10-10T15:04:35.115Z,14.30
2017-10-10T15:07:37.097Z,14.30
2017-10-10T15:10:39.071Z,14.20
2017-10-10T15:13:41.191Z,14.20
2017-10-10T15:16:43.167Z,14.10
2017-10-10T15:19:45.169Z,14.10
2017-10-10T15:22:47.239Z,14.10
2017-10-10T15:25:50.227Z,14.10
2017-10-10T15:28:52.201Z,14.10
2017-10-10T15:31:54.703Z,14.10
2017-10-10T15:34:56.710Z,14.10
2017-10-10T15:37:58.778Z,14.10
2017-10-10T15:41:00.756Z,14.10
2017-10-10T15:44:03.146Z,14.10
2017-10-10T15:47:05.117Z,14.10
2017-10-10T15:50:07.520Z,14.20
2017-10-10T15:53:09.482Z,14.20
2017-10-10T15:56:12.414Z,14.20
2017-10-10T15:59:14.386Z,14.20
2017-10-10T16:02:16.491Z,14.20
2017-10-10T16:05:18.482Z,14.20
2017-10-10T16:08:20.860Z,14.20
2017-10-10T16:11:22.838Z,14.20
2017-10-10T16:14:24.926Z,14.20
2017-10-10T16:17:26.920Z,14.20
2017-10-10T16:20:29.001Z,14.30
2017-10-10T16:23:30.968Z,14.30
2017-10-10T16:26:34.243Z,14.20
2017-10-10T16:29:36.228Z,14.20
2017-10-10T16:32:38.537Z,14.20
2017-10-10T16:35:41.284Z,14.20
2017-10-10T16:38:43.334Z,14.20
2017-10-10T16:41:46.219Z,14.20
2017-10-10T16:44:49.463Z,14.20
2017-10-10T16:47:51.453Z,14.20
2017-10-10T16:50:53.876Z,14.20
2017-10-10T16:53:55.843Z,14.20
2017-10-10T16:56:58.242Z,14.20
2017-10-10T17:00:00.224Z,14.20
2017-10-10T17:03:02.412Z,14.20
2017-10-10T17:06:04.391Z,14.20
2017-10-10T17:09:06.789Z,14.20
2017-10-10T17:12:08.993Z,14.20
2017-10-10T17:15:11.085Z,14.20
2017-10-10T17:18:13.168Z,14.20
2017-10-10T17:21:15.531Z,14.20
2017-10-10T17:24:17.495Z,14.20
2017-10-10T17:27:20.950Z,14.20
2017-10-10T17:30:22.924Z,14.20
2017-10-10T17:33:25.374Z,14.20
2017-10-10T17:36:28.149Z,14.20
2017-10-10T17:39:30.518Z,14.20
2017-10-10T17:42:32.477Z,14.20
2017-10-10T17:45:35.293Z,14.20
2017-10-10T17:48:37.283Z,14.20
2017-10-10T17:51:40.233Z,14.10
2017-10-10T17:54:42.209Z,14.20
2017-10-10T17:57:44.576Z,14.20
2017-10-10T18:00:46.578Z,14.20
2017-10-10T18:03:48.637Z,14.20
2017-10-10T18:06:50.733Z,14.10
2017-10-10T18:09:52.826Z,14.10
2017-10-10T18:12:54.783Z,14.10
2017-10-10T18:15:56.845Z,14.10
2017-10-10T18:18:59.640Z,14.10
2017-10-10T18:22:03.215Z,14.00
2017-10-10T18:25:05.272Z,14.10
2017-10-10T18:28:07.360Z,14.10
2017-10-10T18:31:09.421Z,14.10
2017-10-10T18:34:13.410Z,14.10
2017-10-10T18:37:15.477Z,14.10
2017-10-10T18:40:17.793Z,14.10
2017-10-10T18:43:19.869Z,14.10
2017-10-10T18:46:22.196Z,14.10
2017-10-10T18:49:24.201Z,14.20
2017-10-10T18:52:27.522Z,14.20
2017-10-10T18:55:29.627Z,14.20
2017-10-10T18:58:31.629Z,14.20
2017-10-10T19:01:33.702Z,14.20
2017-10-10T19:04:36.056Z,14.20
2017-10-10T19:07:38.841Z,14.30
2017-10-10T19:10:43.028Z,14.20
2017-10-10T19:13:45.112Z,14.20
2017-10-10T19:16:49.017Z,14.20
2017-10-10T19:19:51.330Z,14.20
2017-10-10T19:22:53.779Z,14.20
2017-10-10T19:25:56.577Z,14.20
2017-10-10T19:28:59.442Z,14.30
2017-10-10T19:32:01.545Z,14.20
2017-10-10T19:35:04.078Z,14.20
2017-10-10T19:38:06.810Z,14.20
2017-10-10T19:41:08.896Z,14.20
2017-10-10T19:44:11.048Z,14.20
2017-10-10T19:47:13.897Z,14.20
2017-10-10T19:50:15.957Z,14.20
2017-10-10T19:53:18.049Z,14.20
2017-10-10T19:56:20.173Z,14.20
2017-10-10T19:59:22.691Z,14.20
2017-10-10T20:02:26.383Z,14.20
2017-10-10T20:05:28.775Z,14.20
2017-10-10T20:08:31.580Z,14.30
2017-10-10T20:11:34.850Z,14.20
2017-10-10T20:14:36.935Z,14.20
2017-10-10T20:17:39.342Z,14.20
2017-10-10T20:20:41.343Z,14.20
2017-10-10T20:23:43.903Z,14.20
2017-10-10T20:26:46.719Z,14.20
2017-10-10T20:29:48.887Z,14.20
2017-10-10T20:32:51.806Z,14.20
2017-10-10T20:35:53.820Z,14.20
2017-10-10T20:38:55.901Z,14.30
2017-10-10T20:41:58.289Z,14.20
2017-10-10T20:45:00.430Z,14.20
2017-10-10T20:48:02.470Z,14.20
2017-10-10T20:51:04.556Z,14.30
2017-10-10T20:54:06.939Z,14.30
2017-10-10T20:57:08.990Z,14.30
2017-10-10T21:00:11.826Z,14.30
2017-10-10T21:03:13.803Z,14.30
2017-10-10T21:06:15.803Z,14.30
2017-10-10T21:09:17.780Z,14.30
2017-10-10T21:12:20.367Z,14.30
2017-10-10T21:15:22.339Z,14.30
2017-10-10T21:18:24.730Z,14.30
2017-10-10T21:21:26.703Z,14.30
2017-10-10T21:24:29.753Z,14.30
2017-10-10T21:27:31.821Z,14.30
2017-10-10T21:30:34.954Z,14.30
2017-10-10T21:33:36.915Z,14.30
2017-10-10T21:36:38.904Z,14.30
2017-10-10T21:39:40.891Z,14.30
2017-10-10T21:42:42.875Z,14.30
2017-10-10T21:45:44.848Z,14.30
2017-10-10T21:48:46.839Z,14.30
2017-10-10T21:51:48.817Z,14.30
2017-10-10T21:54:51.125Z,14.30
2017-10-10T21:57:53.083Z,14.30
2017-10-10T22:00:55.554Z,14.20
2017-10-10T22:03:58.303Z,14.20
2017-10-10T22:07:00.670Z,14.20
2017-10-10T22:10:02.942Z,14.20
2017-10-10T22:13:06.084Z,14.20
2017-10-10T22:16:08.120Z,14.20
2017-10-10T22:19:10.143Z,14.10
2017-10-10T22:22:12.123Z,14.10
2017-10-10T22:25:14.528Z,14.00
2017-10-10T22:28:17.330Z,14.00
2017-10-10T22:31:19.716Z,14.00
2017-10-10T22:34:21.683Z,14.00
2017-10-10T22:37:23.684Z,14.00
2017-10-10T22:40:25.658Z,14.00
2017-10-10T22:43:27.891Z,14.00
2017-10-10T22:46:29.938Z,14.00
2017-10-10T22:49:32.235Z,14.00
2017-10-10T22:52:34.195Z,13.90
2017-10-10T22:55:36.938Z,13.80
2017-10-10T22:58:38.985Z,13.80
2017-10-10T23:01:41.028Z,13.80
2017-10-10T23:04:43.182Z,13.60
2017-10-10T23:07:45.338Z,13.60
2017-10-10T23:10:48.739Z,13.60
2017-10-10T23:13:51.501Z,13.60
2017-10-10T23:16:53.566Z,13.50
2017-10-10T23:19:55.868Z,13.50
2017-10-10T23:22:57.950Z,13.50
2017-10-10T23:26:00.335Z,13.50
2017-10-10T23:29:02.352Z,13.50
2017-10-10T23:32:04.813Z,13.50
2017-10-10T23:35:06.779Z,13.50
2017-10-10T23:38:09.178Z,13.50
2017-10-10T23:41:11.130Z,13.50
2017-10-10T23:44:13.885Z,13.50
2017-10-10T23:47:15.947Z,13.50
2017-10-10T23:50:18.022Z,13.50
2017-10-10T23:53:19.997Z,13.50
2017-10-10T23:56:22.819Z,13.50
2017-10-10T23:59:24.912Z,13.50
